Latest Weather Observations for Hay Airport

IDN60801

Issued at 10:05 pm EDT Friday 24 October 2014 (issued every 30 minutes, with the page automatically refreshed every 10 minutes)

About weather observations | Map of weather stations | Latest weather observations for NSW | Other Formats
Station Details ID: 075019 Name: HAY AIRPORT AWS Lat: -34.54 Lon: 144.83 Height: 92.0 m
Data from the previous 72 hours. | See also: Recent months for locations in New South Wales
Date/Time
EDT
Temp
°C
App
Temp
°C
Dew
Point
Rel
Hum
%
Delta-T
°C
Wind Press
QNH
hPa
Press
MSL
hPa
Rain
since 9 am
mm
Dir
 
Spd
km/h
Gust
km/h
Spd
kts
Gust
kts
24/10:00pm 22.7 19.5 3.3 28 9.4 NW 9 13 5 7 1014.5 1014.3 0.0
24/09:30pm 22.5 19.5 4.1 30 9.0 NW 9 11 5 6 1014.4 1014.2 0.0
24/09:00pm 23.1 20.1 2.0 25 10.0 W 7 9 4 5 1014.1 1013.9 0.0
24/08:30pm 25.7 21.5 1.8 21 11.5 W 13 15 7 8 1013.7 1013.5 0.0
24/08:00pm 27.6 23.3 1.2 18 12.7 W 13 15 7 8 1013.5 1013.3 0.0
24/07:30pm 30.1 24.6 0.6 15 14.3 W 19 26 10 14 1013.0 1012.8 0.0
24/07:00pm 31.3 25.6 0.6 14 15.0 W 20 28 11 15 1012.5 1012.3 0.0
24/06:30pm 31.5 26.4 0.8 14 15.1 WSW 17 22 9 12 1012.3 1012.1 0.0
24/06:00pm 32.1 25.6 0.2 13 15.6 WSW 24 32 13 17 1012.2 1012.0 0.0
24/05:30pm 32.5 25.7 0.6 13 15.7 WSW 26 35 14 19 1012.1 1011.9 0.0
24/05:00pm 31.7 25.3 1.0 14 15.2 W 24 35 13 19 1011.9 1011.7 0.0
24/04:30pm 32.8 25.8 1.8 14 15.6 WSW 28 41 15 22 1012.1 1011.9 0.0
24/04:00pm 32.9 25.4 0.9 13 15.9 WSW 30 39 16 21 1012.2 1012.0 0.0
24/03:30pm 32.0 24.4 3.9 17 14.6 WSW 33 46 18 25 1012.3 1012.1 0.0
24/03:00pm 32.7 25.2 3.6 16 15.1 W 32 43 17 23 1012.3 1012.1 0.0
24/02:57pm 32.8 25.5 4.6 17 14.9 W 32 50 17 27 1012.3 1012.1 0.0
24/02:30pm 32.2 24.7 3.2 16 14.9 W 32 41 17 22 1012.4 1012.2 0.0
24/02:00pm 33.5 26.9 4.2 16 15.4 W 28 41 15 22 1012.5 1012.3 0.0
24/01:42pm 33.0 26.1 4.7 17 15.0 W 30 50 16 27 1012.5 1012.3 0.0
24/01:30pm 32.9 26.2 5.5 18 14.7 W 30 43 16 23 1012.5 1012.3 0.0
24/01:00pm 33.3 26.6 5.8 18 14.8 W 30 41 16 22 1012.7 1012.5 0.0
24/12:30pm 33.3 26.3 5.8 18 14.8 W 32 44 17 24 1012.9 1012.7 0.0
24/12:00pm 33.7 28.0 6.9 19 14.7 W 26 35 14 19 1013.0 1012.8 0.0
24/11:30am 32.2 26.9 4.9 18 14.4 WSW 22 30 12 16 1013.0 1012.8 0.0
24/11:00am 32.3 28.3 6.5 20 14.0 W 17 24 9 13 1012.9 1012.7 0.0
24/10:30am 30.5 27.0 7.0 23 12.7 W 15 20 8 11 1012.9 1012.7 0.0
24/10:00am 29.2 25.6 8.3 27 11.5 W 17 20 9 11 1013.0 1012.8 0.0
24/09:30am 27.8 24.9 8.1 29 10.7 WNW 13 17 7 9 1013.0 1012.8 0.0
24/09:00am 26.4 23.8 7.9 31 9.9 WNW 11 13 6 7 1013.0 1012.8 0.0
24/08:30am 24.8 21.7 7.4 33 9.2 WNW 13 17 7 9 1013.2 1013.0 0.0
24/08:00am 23.8 20.9 6.6 33 8.9 NW 11 15 6 8 1013.2 1013.0 0.0
24/07:30am 21.0 18.4 6.2 38 7.5 WNW 9 11 5 6 1013.2 1013.0 0.0
24/07:00am 18.4 15.7 5.6 43 6.3 NW 9 13 5 7 1013.0 1012.8 0.0
24/06:30am 17.4 14.3 5.7 46 5.7 NNW 11 13 6 7 1012.5 1012.3 0.0
24/06:00am 17.7 15.3 6.9 49 5.4 N 9 11 5 6 1012.1 1011.9 0.0
24/05:30am 16.9 13.7 5.2 46 5.6 N 11 11 6 6 1012.0 1011.8 0.0
24/05:00am 16.6 14.1 6.4 51 5.0 NNW 9 13 5 7 1012.1 1011.9 0.0
24/04:30am 16.9 14.1 5.2 46 5.6 N 9 9 5 5 1011.8 1011.6 0.0
24/04:00am 18.3 16.0 4.8 41 6.5 NNW 6 7 3 4 1011.6 1011.4 0.0
24/03:30am 19.9 17.1 5.2 38 7.2 ENE 9 13 5 7 1011.5 1011.3 0.0
24/03:00am 19.3 17.7 4.6 38 7.1 E 2 7 1 4 1011.6 1011.4 0.0
24/02:30am 20.4 18.5 4.8 36 7.6 SSE 4 7 2 4 1012.0 1011.8 0.0
24/02:00am 22.8 19.6 5.3 32 8.8 WSW 11 15 6 8 1012.4 1012.2 0.0
24/01:30am 24.0 20.2 5.8 31 9.3 W 15 17 8 9 1012.6 1012.4 0.0
24/01:00am 23.6 20.2 6.0 32 9.0 W 13 15 7 8 1012.9 1012.7 0.0
24/12:30am 22.5 19.8 5.4 33 8.6 WNW 9 11 5 6 1012.8 1012.6 0.0
24/12:00am 23.2 22.1 5.1 31 9.1 CALM 0 6 0 3 1012.6 1012.4 0.0
 
Date/Time
EDT
Temp
°C
App
Temp
°C
Dew
Point
Rel
Hum
%
Delta-T
°C
Wind Press
QNH
hPa
Press
MSL
hPa
Rain
since 9 am
mm
Dir
 
Spd
km/h
Gust
km/h
Spd
kts
Gust
kts
23/11:30pm 24.5 22.1 5.3 29 9.7 W 7 9 4 5 1012.6 1012.4 0.0
23/11:00pm 25.6 22.4 5.2 27 10.4 W 11 13 6 7 1012.5 1012.3 0.0
23/10:30pm 26.9 23.0 5.2 25 11.2 W 15 19 8 10 1012.3 1012.1 0.0
23/10:00pm 27.5 23.8 4.5 23 11.7 W 13 15 7 8 1012.1 1011.9 0.0
23/09:30pm 28.1 24.5 5.0 23 11.9 W 13 15 7 8 1011.9 1011.7 0.0
23/09:00pm 27.2 24.1 3.7 22 11.8 WNW 9 9 5 5 1011.5 1011.3 0.0
23/08:30pm 29.4 25.6 4.1 20 13.0 WNW 13 13 7 7 1011.0 1010.9 0.0
23/08:00pm 30.0 26.0 3.1 18 13.6 WNW 13 15 7 8 1010.8 1010.7 0.0
23/07:30pm 33.4 29.3 2.3 14 15.8 WNW 13 15 7 8 1010.4 1010.3 0.0
23/07:00pm 35.1 30.1 1.5 12 17.1 NW 17 20 9 11 1010.3 1010.2 0.0
23/06:30pm 36.7 31.1 1.5 11 18.1 WNW 20 26 11 14 1010.1 1010.0 0.0
23/06:00pm 36.2 30.6 1.1 11 17.9 NW 20 30 11 16 1010.1 1010.0 0.0
23/05:30pm 37.3 30.7 1.9 11 18.3 NW 26 39 14 21 1010.1 1010.0 0.0
23/05:00pm 37.3 31.6 3.1 12 18.1 NW 22 32 12 17 1010.3 1010.2 0.0
23/04:30pm 37.7 32.3 2.2 11 18.5 WNW 20 30 11 16 1010.4 1010.3 0.0
23/04:00pm 37.7 32.5 3.4 12 18.2 WNW 20 30 11 16 1010.6 1010.5 0.0
23/03:30pm 37.7 31.3 3.4 12 18.2 NW 26 37 14 20 1010.8 1010.7 0.0
23/03:00pm 37.3 30.3 1.9 11 18.4 NW 28 37 15 20 1011.1 1011.0 0.0
23/02:31pm 37.5 30.5 2.1 11 18.4 NW 28 46 15 25 1011.6 1011.4 0.0
23/02:30pm 37.8 30.5 2.3 11 18.6 NW 30 46 16 25 1011.7 1011.5 0.0
23/02:00pm 37.8 31.2 2.3 11 18.6 NW 26 39 14 21 1012.2 1012.0 0.0
23/01:30pm 36.2 32.3 3.4 13 17.3 NW 13 20 7 11 1012.7 1012.5 0.0
23/01:00pm 35.1 30.9 3.6 14 16.6 NW 15 26 8 14 1013.1 1012.9 0.0
23/12:30pm 35.1 31.4 4.6 15 16.3 W 13 22 7 12 1013.6 1013.4 0.0
23/12:00pm 34.8 30.0 4.4 15 16.1 NW 19 30 10 16 1014.2 1014.0 0.0
23/11:30am 33.7 29.8 5.3 17 15.2 N 15 24 8 13 1014.7 1014.5 0.0
23/11:00am 33.0 28.9 6.3 19 14.5 NNW 17 26 9 14 1014.9 1014.7 0.0
23/10:30am 31.6 27.4 5.9 20 13.7 N 17 24 9 13 1014.9 1014.7 0.0
23/10:00am 30.0 25.6 6.6 23 12.5 N 19 24 10 13 1014.9 1014.7 0.0
23/09:30am 28.2 23.7 6.9 26 11.4 N 20 26 11 14 1014.9 1014.7 0.0
23/09:00am 26.8 21.6 7.3 29 10.4 N 24 32 13 17 1015.0 1014.8 0.0
23/08:30am 25.3 20.1 7.4 32 9.5 N 24 32 13 17 1014.9 1014.7 0.0
23/08:00am 23.8 19.3 7.0 34 8.8 N 20 28 11 15 1014.7 1014.5 0.0
23/07:30am 22.8 17.8 6.6 35 8.3 NNE 22 28 12 15 1014.6 1014.4 0.0
23/07:00am 23.4 18.1 6.7 34 8.6 N 24 32 13 17 1014.5 1014.3 0.0
23/06:30am 23.9 18.2 6.7 33 8.9 N 26 35 14 19 1014.2 1014.0 0.0
23/06:00am 23.8 18.1 6.6 33 8.9 NNE 26 35 14 19 1014.1 1013.9 0.0
23/05:30am 24.0 19.1 6.7 33 9.0 NNE 22 30 12 16 1014.1 1013.9 0.0
23/05:00am 23.9 19.4 7.1 34 8.8 NNE 20 24 11 13 1014.0 1013.8 0.0
23/04:30am 24.2 19.8 7.4 34 8.8 NE 20 26 11 14 1014.0 1013.8 0.0
23/04:00am 24.3 19.4 8.3 36 8.6 NE 24 32 13 17 1013.9 1013.7 0.0
23/03:30am 24.6 20.6 8.1 35 8.8 NE 19 26 10 14 1014.3 1014.1 0.0
23/03:00am 25.0 21.0 8.1 34 9.0 NE 19 26 10 14 1014.6 1014.4 0.0
23/02:30am 25.6 21.3 7.7 32 9.5 ENE 20 28 11 15 1015.0 1014.8 0.0
23/02:00am 25.2 20.9 7.8 33 9.3 ENE 20 28 11 15 1015.3 1015.1 0.0
23/01:30am 25.8 22.1 7.9 32 9.6 E 17 24 9 13 1015.7 1015.5 0.0
23/01:00am 25.4 22.3 8.8 35 9.0 E 15 24 8 13 1016.0 1015.8 0.0
23/12:30am 26.0 22.9 8.9 34 9.3 E 15 19 8 10 1016.1 1015.9 0.0
23/12:00am 25.8 21.6 8.3 33 9.4 SE 20 28 11 15 1016.0 1015.8 0.0
 
Date/Time
EDT
Temp
°C
App
Temp
°C
Dew
Point
Rel
Hum
%
Delta-T
°C
Wind Press
QNH
hPa
Press
MSL
hPa
Rain
since 9 am
mm
Dir
 
Spd
km/h
Gust
km/h
Spd
kts
Gust
kts
22/11:30pm 26.1 21.7 7.2 30 10.0 SSE 20 26 11 14 1016.3 1016.1 0.0
22/11:00pm 26.3 23.7 6.3 28 10.4 E 9 11 5 6 1015.9 1015.7 0.0
22/10:30pm 27.6 24.3 6.4 26 11.2 ENE 13 17 7 9 1015.6 1015.4 0.0
22/10:00pm 27.9 24.4 7.2 27 11.1 ENE 15 20 8 11 1015.9 1015.7 0.0
22/09:30pm 28.8 25.1 7.9 27 11.4 NE 17 20 9 11 1016.2 1016.0 0.0
22/09:00pm 30.0 25.6 7.2 24 12.3 N 20 26 11 14 1015.9 1015.7 0.0
22/08:30pm 29.9 25.9 6.5 23 12.5 E 17 22 9 12 1014.3 1014.1 0.0
22/08:00pm 28.2 24.9 0.0 16 13.3 ENE 7 9 4 5 1013.9 1013.7 0.0
22/07:30pm 31.2 26.8 0.6 14 14.9 NNE 13 15 7 8 1013.7 1013.5 0.0
22/07:00pm 34.1 30.0 -0.5 11 16.9 N 11 15 6 8 1013.6 1013.4 0.0
22/06:30pm 35.2 31.4 -1.0 10 17.7 NNW 9 20 5 11 1013.5 1013.3 0.0
22/06:00pm 36.0 31.9 -0.4 10 18.0 WSW 11 17 6 9 1013.6 1013.4 0.0
22/05:30pm 35.7 32.5 -0.6 10 17.9 NW 6 13 3 7 1013.8 1013.6 0.0
22/05:00pm 35.9 31.4 -0.5 10 18.0 WNW 13 20 7 11 1013.9 1013.7 0.0
22/04:30pm 36.1 32.7 -0.3 10 18.1 N 7 13 4 7 1014.1 1013.9 0.0
22/04:00pm 35.6 33.1 1.8 12 17.3 NNW 4 - 2 - 1014.6 1014.4 0.0
22/03:30pm 35.7 30.6 4.1 14 16.8 NNW 20 35 11 19 1015.0 1014.8 0.0
22/03:00pm 35.8 32.1 4.2 14 16.8 WNW 13 28 7 15 1015.4 1015.2 0.0
22/02:30pm 35.4 31.2 3.8 14 16.7 NW 15 20 8 11 1016.2 1016.0 0.0
22/02:00pm 34.8 29.6 5.3 16 15.9 N 22 30 12 16 1016.6 1016.4 0.0
22/01:30pm 34.5 29.6 6.7 18 15.3 N 22 30 12 16 1017.1 1017.0 0.0
22/01:00pm 33.0 27.4 7.1 20 14.2 N 26 35 14 19 1017.3 1017.2 0.0
22/12:30pm 31.6 26.0 8.6 24 12.9 N 28 35 15 19 1017.9 1017.8 0.0
22/12:00pm 29.6 23.3 7.5 25 12.0 N 30 39 16 21 1018.5 1018.4 0.0
22/11:30am 27.7 21.8 7.5 28 10.9 N 28 37 15 20 1019.1 1019.0 0.0
22/11:00am 27.2 21.6 8.6 31 10.1 N 28 39 15 21 1019.5 1019.4 0.0
22/10:30am 25.9 20.6 8.4 33 9.5 NNE 26 37 14 20 1019.8 1019.7 0.0
22/10:00am 26.1 20.2 9.0 34 9.3 NNE 30 39 16 21 1020.1 1020.0 0.0
22/09:30am 24.2 18.3 9.0 38 8.2 NNE 30 39 16 21 1019.8 1019.7 0.0
22/09:00am 21.8 15.5 9.0 44 6.8 NNE 32 41 17 22 1019.8 1019.7 0.0
22/08:30am 21.2 17.3 9.4 47 6.3 NE 20 28 11 15 1020.5 1020.4 0.0
22/08:00am 19.8 16.0 9.7 52 5.4 ENE 20 26 11 14 1020.3 1020.2 0.0
22/07:30am 18.8 14.9 9.3 54 5.0 ENE 20 26 11 14 1020.4 1020.3 0.0
22/07:00am 18.7 14.8 9.5 55 4.9 ENE 20 28 11 15 1020.5 1020.4 0.0
22/06:30am 18.6 14.8 9.9 57 4.6 ENE 20 30 11 16 1020.3 1020.2 0.0
22/06:00am 18.1 15.3 10.0 59 4.3 ENE 15 20 8 11 1020.0 1019.9 0.0
22/05:30am 17.4 15.1 10.3 63 3.8 E 13 17 7 9 1019.8 1019.7 0.0
22/05:00am 17.6 14.9 10.2 62 3.9 E 15 20 8 11 1019.5 1019.4 0.0
22/04:30am 17.7 14.9 10.1 61 4.0 E 15 19 8 10 1019.6 1019.5 0.0
22/04:00am 18.0 15.6 10.1 60 4.2 E 13 19 7 10 1019.7 1019.6 0.0
22/03:30am 19.1 16.5 10.6 58 4.6 E 15 22 8 12 1019.7 1019.6 0.0
22/03:00am 18.9 16.5 10.2 57 4.7 E 13 20 7 11 1020.0 1019.9 0.0
22/02:30am 19.9 16.5 10.6 55 5.1 E 19 24 10 13 1019.9 1019.8 0.0
22/02:00am 20.4 17.0 10.5 53 5.4 E 19 26 10 14 1020.2 1020.1 0.0
22/01:30am 20.6 17.3 9.5 49 5.9 E 17 20 9 11 1020.5 1020.4 0.0
22/01:00am 20.5 17.1 7.8 44 6.6 E 15 22 8 12 1020.7 1020.6 0.0
22/12:30am 21.0 17.3 6.2 38 7.5 E 15 20 8 11 1021.0 1020.9 0.0
22/12:00am 21.4 18.0 6.1 37 7.7 E 13 15 7 8 1021.3 1021.2 0.0
 
Date/Time
EDT
Temp
°C
App
Temp
°C
Dew
Point
Rel
Hum
%
Delta-T
°C
Wind Press
QNH
hPa
Press
MSL
hPa
Rain
since 9 am
mm
Dir
 
Spd
km/h
Gust
km/h
Spd
kts
Gust
kts
21/11:30pm 22.1 19.1 5.9 35 8.2 E 11 15 6 8 1021.4 1021.3 0.0
21/11:00pm 23.2 19.4 5.6 32 8.9 E 15 19 8 10 1021.5 1021.4 0.0
21/10:30pm 23.3 19.7 5.2 31 9.1 E 13 17 7 9 1021.6 1021.5 0.0

Other Formats:

Comma delimited format used in spreadsheet applications
http://www.bom.gov.au/fwo/IDN60801/IDN60801.94702.axf

JavaScript Object Notation format (JSON) in row-major order
http://www.bom.gov.au/fwo/IDN60801/IDN60801.94702.json